Time;durP1;ratioP1;P1;durP2;ratioP2;P2;SDS_P1;SDS_P2;PMS_P1;PMS_P2;Temp;Humidity;BMP_temperature;BMP_pressure;BME280_temperature;BME280_humidity;BME280_pressure;Samples;Min_cycle;Max_cycle;Signal;HPM_P1;HPM_P2
2021/06/07 00:01:41;;;;;;;24.42;16.35;;;;;;;;;;5011469;28;20062;-69
2021/06/07 00:04:08;;;;;;;22.02;16.55;;;;;;;;;;5012675;28;20107;-69
2021/06/07 00:06:36;;;;;;;28.67;19.00;;;;;;;;;;5029533;28;20089;-69
2021/06/07 00:09:06;;;;;;;26.00;18.58;;;;;;;;;;5034439;28;20077;-69
2021/06/07 00:11:33;;;;;;;26.90;19.38;;;;;;;;;;5034952;28;20169;-68
2021/06/07 00:14:01;;;;;;;26.40;17.58;;;;;;;;;;5033672;28;20145;-69
2021/06/07 00:16:29;;;;;;;27.23;18.23;;;;;;;;;;5034756;28;20480;-69
2021/06/07 00:18:57;;;;;;;27.77;19.38;;;;;;;;;;5034445;28;20340;-69
2021/06/07 00:21:25;;;;;;;30.42;20.17;;;;;;;;;;5034513;28;20133;-69
2021/06/07 00:23:53;;;;;;;27.60;19.30;;;;;;;;;;5034567;28;20096;-69
2021/06/07 00:26:19;;;;;;;26.90;19.52;;;;;;;;;;5034620;28;20484;-69
2021/06/07 00:28:46;;;;;;;27.85;19.08;;;;;;;;;;5030763;28;20133;-69
2021/06/07 00:31:13;;;;;;;30.13;18.15;;;;;;;;;;5014539;28;20153;-69
2021/06/07 00:33:40;;;;;;;28.63;20.02;;;;;;;;;;5014387;28;20054;-69
2021/06/07 00:36:07;;;;;;;32.30;20.73;;;;;;;;;;5014628;28;20085;-69
2021/06/07 00:38:37;;;;;;;28.08;19.98;;;;;;;;;;5014669;28;20196;-69
2021/06/07 00:41:06;;;;;;;28.73;19.63;;;;;;;;;;5021340;28;20488;-69
2021/06/07 00:43:33;;;;;;;31.77;20.40;;;;;;;;;;5034128;28;20049;-69
2021/06/07 00:45:59;;;;;;;29.70;19.60;;;;;;;;;;5034510;28;20085;-69
2021/06/07 00:48:27;;;;;;;30.63;19.83;;;;;;;;;;5034055;28;20088;-69
2021/06/07 00:50:59;;;;;;;31.33;20.20;;;;;;;;;;5014793;28;20073;-69
2021/06/07 00:53:26;;;;;;;27.88;20.10;;;;;;;;;;5013847;28;20078;-69
2021/06/07 00:55:57;;;;;;;26.67;19.50;;;;;;;;;;5013253;28;20054;-69
2021/06/07 00:58:30;;;;;;;28.75;19.35;;;;;;;;;;5013362;28;20524;-69
2021/06/07 01:00:58;;;;;;;33.78;19.60;;;;;;;;;;5032814;28;20176;-69
2021/06/07 01:03:25;;;;;;;29.92;18.63;;;;;;;;;;5033670;28;20049;-69
2021/06/07 01:05:52;;;;;;;28.63;19.60;;;;;;;;;;5034180;28;20080;-69
2021/06/07 01:08:20;;;;;;;30.98;19.15;;;;;;;;;;5033542;28;20149;-68
2021/06/07 01:10:47;;;;;;;30.35;19.17;;;;;;;;;;5030416;28;20137;-68
2021/06/07 01:13:14;;;;;;;27.65;19.38;;;;;;;;;;5013719;28;20092;-68
2021/06/07 01:15:42;;;;;;;29.08;19.60;;;;;;;;;;5013495;28;20141;-68
2021/06/07 01:18:10;;;;;;;32.35;19.50;;;;;;;;;;5018830;28;20095;-68
2021/06/07 01:20:37;;;;;;;27.63;18.95;;;;;;;;;;5032177;28;20393;-68
2021/06/07 01:23:03;;;;;;;31.48;19.85;;;;;;;;;;5033356;28;20367;-68
2021/06/07 01:25:36;;;;;;;28.52;19.00;;;;;;;;;;5033491;28;20455;-68
2021/06/07 01:28:07;;;;;;;29.63;20.23;;;;;;;;;;5048894;28;20052;-68
2021/06/07 01:30:36;;;;;;;31.45;20.48;;;;;;;;;;5033314;28;20073;-68
2021/06/07 01:33:05;;;;;;;29.05;19.15;;;;;;;;;;5033544;28;20049;-68
2021/06/07 01:35:33;;;;;;;30.00;19.83;;;;;;;;;;5033167;28;20075;-69
2021/06/07 01:38:00;;;;;;;33.35;20.13;;;;;;;;;;5032070;28;20077;-68
2021/06/07 01:40:34;;;;;;;29.42;19.23;;;;;;;;;;5033105;28;20073;-68
2021/06/07 01:43:01;;;;;;;29.05;19.05;;;;;;;;;;5032980;28;20089;-69
2021/06/07 01:45:29;;;;;;;30.77;20.25;;;;;;;;;;5033048;28;20056;-69
2021/06/07 01:48:00;;;;;;;31.27;19.15;;;;;;;;;;5032856;28;20088;-69
2021/06/07 01:50:27;;;;;;;29.83;18.08;;;;;;;;;;5032691;28;20147;-69
2021/06/07 01:52:54;;;;;;;31.73;19.80;;;;;;;;;;5031822;28;20085;-69
2021/06/07 01:55:27;;;;;;;29.85;19.38;;;;;;;;;;5027511;28;20077;-69
2021/06/07 01:57:54;;;;;;;31.80;19.75;;;;;;;;;;5015147;28;20092;-69
2021/06/07 02:00:26;;;;;;;30.88;19.67;;;;;;;;;;5032618;28;20674;-69
2021/06/07 02:02:53;;;;;;;31.80;19.38;;;;;;;;;;5032598;28;20508;-69
2021/06/07 02:05:25;;;;;;;36.72;20.70;;;;;;;;;;5032583;28;20077;-69
2021/06/07 02:07:54;;;;;;;34.20;20.92;;;;;;;;;;5032814;28;20110;-69
2021/06/07 02:10:27;;;;;;;36.92;20.75;;;;;;;;;;5032262;28;20076;-69
2021/06/07 02:12:53;;;;;;;;;;;;;;;;;;5032887;28;20144;-68
2021/06/07 02:15:20;;;;;;;35.97;20.83;;;;;;;;;;5032647;28;19921;-69
2021/06/07 02:17:46;;;;;;;40.47;23.02;;;;;;;;;;5032495;28;20140;-69
2021/06/07 02:20:16;;;;;;;39.53;22.05;;;;;;;;;;5032522;28;20077;-69
2021/06/07 02:22:44;;;;;;;38.85;21.83;;;;;;;;;;5032394;28;20479;-69
2021/06/07 02:25:13;;;;;;;39.28;22.40;;;;;;;;;;5032283;28;20091;-69
2021/06/07 02:27:40;;;;;;;40.47;23.42;;;;;;;;;;5022908;28;20077;-69
2021/06/07 02:30:12;;;;;;;38.58;21.27;;;;;;;;;;5012462;28;20077;-69
2021/06/07 02:32:39;;;;;;;34.45;20.35;;;;;;;;;;5012524;28;20077;-68
2021/06/07 02:35:08;;;;;;;37.92;20.80;;;;;;;;;;5012336;28;20085;-68
2021/06/07 02:37:34;;;;;;;34.92;20.50;;;;;;;;;;5012519;28;20136;-68
2021/06/07 02:40:06;;;;;;;36.65;20.95;;;;;;;;;;5012457;28;20089;-68
2021/06/07 02:42:34;;;;;;;40.58;21.70;;;;;;;;;;5012366;28;20085;-68
2021/06/07 02:45:00;;;;;;;38.75;21.30;;;;;;;;;;5012759;28;20049;-69
2021/06/07 02:47:27;;;;;;;38.05;20.42;;;;;;;;;;5012265;28;20481;-69
2021/06/07 02:49:54;;;;;;;35.10;20.25;;;;;;;;;;5012055;28;20092;-68
2021/06/07 02:52:20;;;;;;;34.58;20.40;;;;;;;;;;5012027;28;20084;-69
2021/06/07 02:54:47;;;;;;;33.25;20.30;;;;;;;;;;5012213;28;20046;-69
2021/06/07 02:57:13;;;;;;;37.20;20.55;;;;;;;;;;5012018;28;20092;-69
2021/06/07 02:59:40;;;;;;;38.45;21.63;;;;;;;;;;5012267;28;20142;-69
2021/06/07 03:02:06;;;;;;;35.45;19.75;;;;;;;;;;5011736;28;20050;-69
2021/06/07 03:04:33;;;;;;;36.45;19.95;;;;;;;;;;5011981;28;20093;-69
2021/06/07 03:06:59;;;;;;;38.35;21.67;;;;;;;;;;5011975;28;20054;-69
2021/06/07 03:09:26;;;;;;;38.30;21.15;;;;;;;;;;5011894;28;20144;-69
2021/06/07 03:11:52;;;;;;;37.97;21.55;;;;;;;;;;5018911;28;20152;-69
2021/06/07 03:14:19;;;;;;;40.80;21.85;;;;;;;;;;5031383;28;20061;-69
2021/06/07 03:16:45;;;;;;;45.97;23.58;;;;;;;;;;5016963;28;20457;-69
2021/06/07 03:19:12;;;;;;;38.65;22.20;;;;;;;;;;5019821;28;20053;-69
2021/06/07 03:21:39;;;;;;;41.08;22.15;;;;;;;;;;5024705;28;20073;-69
2021/06/07 03:24:05;;;;;;;43.35;23.40;;;;;;;;;;5031668;28;20072;-69
2021/06/07 03:26:32;;;;;;;43.75;23.70;;;;;;;;;;5023790;28;20530;-69
2021/06/07 03:28:59;;;;;;;44.28;23.73;;;;;;;;;;5031436;28;20529;-69
2021/06/07 03:31:25;;;;;;;44.05;24.02;;;;;;;;;;5031429;28;20599;-69
2021/06/07 03:33:52;;;;;;;41.15;23.52;;;;;;;;;;5017130;28;20058;-68
2021/06/07 03:36:20;;;;;;;40.80;22.30;;;;;;;;;;5027536;28;20081;-68
2021/06/07 03:38:47;;;;;;;44.35;23.83;;;;;;;;;;5014630;28;20089;-68
2021/06/07 03:41:13;;;;;;;38.25;21.55;;;;;;;;;;5016164;28;20130;-68
2021/06/07 03:43:40;;;;;;;41.00;22.55;;;;;;;;;;5027070;28;20085;-68
2021/06/07 03:46:07;;;;;;;43.92;23.42;;;;;;;;;;5032572;28;20045;-68
2021/06/07 03:48:33;;;;;;;40.13;22.35;;;;;;;;;;5026918;28;20095;-68
2021/06/07 03:51:00;;;;;;;47.67;23.08;;;;;;;;;;5032340;28;20136;-68
2021/06/07 03:53:27;;;;;;;41.38;21.33;;;;;;;;;;5032159;28;20108;-68
2021/06/07 03:55:54;;;;;;;45.33;24.15;;;;;;;;;;5032324;28;20108;-68
2021/06/07 03:58:21;;;;;;;39.53;21.35;;;;;;;;;;5035057;28;20067;-68
2021/06/07 04:00:49;;;;;;;38.13;21.88;;;;;;;;;;5034944;28;20571;-68
2021/06/07 04:03:15;;;;;;;40.47;22.20;;;;;;;;;;5034734;28;20049;-68
2021/06/07 04:05:42;;;;;;;40.03;22.52;;;;;;;;;;5035228;28;20128;-68
2021/06/07 04:08:09;;;;;;;37.90;22.85;;;;;;;;;;5034327;28;20140;-68
2021/06/07 04:10:36;;;;;;;38.35;21.90;;;;;;;;;;5034382;28;20100;-68
2021/06/07 04:13:03;;;;;;;42.75;22.77;;;;;;;;;;5034922;28;20123;-68
2021/06/07 04:15:30;;;;;;;37.53;20.88;;;;;;;;;;5033426;28;20076;-68
2021/06/07 04:17:57;;;;;;;41.60;22.67;;;;;;;;;;5022510;28;20060;-69
2021/06/07 04:20:27;;;;;;;42.20;22.58;;;;;;;;;;5029958;28;20046;-68
2021/06/07 04:22:54;;;;;;;42.45;23.25;;;;;;;;;;5034180;28;20064;-68
2021/06/07 04:25:21;;;;;;;43.75;22.88;;;;;;;;;;5034481;28;20099;-68
2021/06/07 04:27:50;;;;;;;42.42;21.15;;;;;;;;;;5034903;28;20092;-68
2021/06/07 04:30:18;;;;;;;40.45;22.75;;;;;;;;;;5034105;28;20046;-68
2021/06/07 04:32:46;;;;;;;47.78;24.38;;;;;;;;;;5034508;28;20080;-68
2021/06/07 04:35:14;;;;;;;44.05;22.50;;;;;;;;;;5034521;28;20091;-69
2021/06/07 04:37:51;;;;;;;43.45;22.90;;;;;;;;;;5034833;28;20053;-69
2021/06/07 04:40:29;;;;;;;46.22;24.50;;;;;;;;;;5034362;28;20124;-69
2021/06/07 04:42:57;;;;;;;39.15;22.58;;;;;;;;;;5034424;28;20077;-69
2021/06/07 04:45:25;;;;;;;45.22;23.20;;;;;;;;;;5033214;28;20061;-69
2021/06/07 04:47:52;;;;;;;41.95;22.38;;;;;;;;;;5034550;28;20554;-68
2021/06/07 04:50:20;;;;;;;43.92;23.58;;;;;;;;;;5033453;28;20103;-68
2021/06/07 04:53:02;;;;;;;42.47;22.05;;;;;;;;;;5033939;28;20510;-68
2021/06/07 04:55:30;;;;;;;40.50;21.58;;;;;;;;;;5034055;28;20053;-68
2021/06/07 04:57:58;;;;;;;40.00;22.33;;;;;;;;;;5034267;28;20140;-68
2021/06/07 05:00:25;;;;;;;43.42;22.67;;;;;;;;;;5033792;28;20080;-68
2021/06/07 05:02:52;;;;;;;39.03;21.65;;;;;;;;;;5033872;28;20128;-68
2021/06/07 05:05:19;;;;;;;37.60;19.95;;;;;;;;;;5033909;28;20484;-68
2021/06/07 05:07:46;;;;;;;43.90;21.50;;;;;;;;;;5034006;28;20096;-68
2021/06/07 05:10:13;;;;;;;37.08;21.13;;;;;;;;;;5034023;28;20148;-68
2021/06/07 05:12:40;;;;;;;40.80;21.77;;;;;;;;;;5052532;22;20089;-67
2021/06/07 05:15:08;;;;;;;35.70;19.83;;;;;;;;;;4994381;28;20078;-69
2021/06/07 05:17:34;;;;;;;36.92;21.20;;;;;;;;;;4994476;28;20093;-70
2021/06/07 05:20:02;;;;;;;40.75;21.00;;;;;;;;;;4994462;28;20531;-70
2021/06/07 05:22:29;;;;;;;39.97;21.08;;;;;;;;;;4993778;28;20509;-70
2021/06/07 05:24:56;;;;;;;34.38;19.35;;;;;;;;;;4994409;28;20540;-69
2021/06/07 05:27:22;;;;;;;39.75;21.55;;;;;;;;;;4994070;28;20086;-69
2021/06/07 05:29:49;;;;;;;35.75;20.08;;;;;;;;;;4993864;28;20496;-69
2021/06/07 05:32:15;;;;;;;35.95;19.35;;;;;;;;;;4993987;28;20082;-70
2021/06/07 05:34:43;;;;;;;43.40;21.10;;;;;;;;;;4994002;28;20058;-70
2021/06/07 05:37:10;;;;;;;33.95;19.45;;;;;;;;;;4994047;28;20085;-68
2021/06/07 05:39:36;;;;;;;32.35;18.17;;;;;;;;;;4994012;28;20101;-69
2021/06/07 05:42:04;;;;;;;36.97;19.50;;;;;;;;;;4993852;28;20090;-69
2021/06/07 05:44:30;;;;;;;38.40;19.33;;;;;;;;;;4993583;28;20105;-69
2021/06/07 05:46:57;;;;;;;35.15;18.95;;;;;;;;;;4993740;28;20533;-69
2021/06/07 05:49:23;;;;;;;34.67;18.65;;;;;;;;;;4993574;28;20054;-69
2021/06/07 05:51:50;;;;;;;34.00;19.60;;;;;;;;;;4993487;28;20101;-69
2021/06/07 05:54:16;;;;;;;36.45;19.77;;;;;;;;;;4993561;28;20046;-69
2021/06/07 05:56:43;;;;;;;34.70;19.30;;;;;;;;;;4993749;28;20085;-70
2021/06/07 05:59:10;;;;;;;32.83;18.73;;;;;;;;;;4993484;28;20096;-69
2021/06/07 06:01:36;;;;;;;34.25;18.73;;;;;;;;;;4993231;28;20042;-70
2021/06/07 06:04:03;;;;;;;38.25;19.42;;;;;;;;;;4993197;28;20417;-70
2021/06/07 06:06:31;;;;;;;31.48;18.73;;;;;;;;;;4993507;28;20077;-70
2021/06/07 06:08:58;;;;;;;32.75;19.15;;;;;;;;;;4993518;28;20089;-69
2021/06/07 06:11:25;;;;;;;32.92;18.65;;;;;;;;;;4993316;28;20046;-69
2021/06/07 06:13:54;;;;;;;41.13;21.08;;;;;;;;;;4993084;28;20054;-69
2021/06/07 06:16:22;;;;;;;36.03;19.27;;;;;;;;;;4993215;28;20096;-70
2021/06/07 06:18:49;;;;;;;36.85;20.10;;;;;;;;;;4992938;28;20487;-70
2021/06/07 06:21:16;;;;;;;35.78;19.63;;;;;;;;;;4992755;28;20042;-70
2021/06/07 06:23:42;;;;;;;31.77;18.92;;;;;;;;;;4992693;28;20081;-70
2021/06/07 06:26:09;;;;;;;35.85;20.90;;;;;;;;;;4992595;28;20085;-69
2021/06/07 06:28:37;;;;;;;32.63;19.50;;;;;;;;;;4991469;28;20073;-69
2021/06/07 06:31:04;;;;;;;36.75;20.55;;;;;;;;;;4991292;28;20073;-69
2021/06/07 06:33:31;;;;;;;31.88;19.35;;;;;;;;;;4990358;28;20136;-69
2021/06/07 06:35:57;;;;;;;30.33;18.88;;;;;;;;;;4990804;28;20492;-69
2021/06/07 06:38:24;;;;;;;35.10;19.25;;;;;;;;;;4990777;28;20129;-69
2021/06/07 06:40:53;;;;;;;40.28;20.25;;;;;;;;;;4990864;28;20125;-69
2021/06/07 06:43:20;;;;;;;34.50;20.55;;;;;;;;;;4990414;28;20362;-69
2021/06/07 06:45:47;;;;;;;42.25;21.35;;;;;;;;;;4990088;28;20097;-69
2021/06/07 06:48:14;;;;;;;35.83;19.52;;;;;;;;;;4990739;28;20145;-70
2021/06/07 06:50:41;;;;;;;35.03;19.85;;;;;;;;;;4990483;28;20054;-70
2021/06/07 06:53:13;;;;;;;42.47;22.38;;;;;;;;;;4989508;28;20105;-71
2021/06/07 06:55:41;;;;;;;37.40;20.42;;;;;;;;;;4981984;28;20046;-71
2021/06/07 06:58:08;;;;;;;40.35;20.33;;;;;;;;;;5009666;28;20116;-71
2021/06/07 07:00:36;;;;;;;40.13;19.10;;;;;;;;;;4995135;28;20108;-71
2021/06/07 07:03:11;;;;;;;34.25;18.75;;;;;;;;;;4990554;28;20124;-70
2021/06/07 07:05:38;;;;;;;40.10;20.95;;;;;;;;;;4989229;28;20145;-71
2021/06/07 07:08:05;;;;;;;36.55;19.38;;;;;;;;;;4990806;28;20089;-71
2021/06/07 07:10:33;;;;;;;32.08;19.10;;;;;;;;;;4989762;28;20133;-71
2021/06/07 07:13:00;;;;;;;32.95;16.70;;;;;;;;;;5007090;28;20054;-70
2021/06/07 07:15:27;;;;;;;36.45;17.85;;;;;;;;;;5009403;28;20061;-71
2021/06/07 07:17:54;;;;;;;34.20;18.40;;;;;;;;;;5009900;28;20093;-71
2021/06/07 07:20:21;;;;;;;32.67;18.42;;;;;;;;;;5010004;28;20120;-70
2021/06/07 07:22:47;;;;;;;30.65;16.83;;;;;;;;;;5009626;28;20151;-70
2021/06/07 07:25:15;;;;;;;31.73;17.42;;;;;;;;;;5009446;28;20524;-70
2021/06/07 07:27:42;;;;;;;29.35;16.42;;;;;;;;;;5009887;28;20074;-70
2021/06/07 07:30:11;;;;;;;32.47;17.48;;;;;;;;;;5009565;28;20089;-70
2021/06/07 07:32:42;;;;;;;25.80;16.55;;;;;;;;;;5009695;28;20077;-71
2021/06/07 07:35:09;;;;;;;27.88;16.42;;;;;;;;;;5009569;28;20583;-71
2021/06/07 07:37:36;;;;;;;29.67;16.55;;;;;;;;;;5009283;28;20077;-68
2021/06/07 07:40:04;;;;;;;31.98;16.45;;;;;;;;;;5009751;28;20085;-71
2021/06/07 07:42:31;;;;;;;29.50;16.85;;;;;;;;;;4969994;28;20047;-69
2021/06/07 07:44:59;;;;;;;28.70;16.30;;;;;;;;;;4974730;28;20090;-80
2021/06/07 07:47:26;;;;;;;25.98;15.77;;;;;;;;;;4980740;28;20523;-77
2021/06/07 07:49:53;;;;;;;27.38;16.25;;;;;;;;;;4982499;28;20126;-71
2021/06/07 07:52:23;;;;;;;27.15;15.85;;;;;;;;;;4968817;28;20152;-68
2021/06/07 07:54:51;;;;;;;27.85;16.25;;;;;;;;;;4983053;28;21067;-70
2021/06/07 07:57:18;;;;;;;30.98;18.05;;;;;;;;;;4971318;28;20061;-68
2021/06/07 07:59:45;;;;;;;27.70;17.02;;;;;;;;;;4983771;28;20179;-70
2021/06/07 08:02:12;;;;;;;28.15;15.90;;;;;;;;;;4974650;28;20042;-71
2021/06/07 08:04:38;;;;;;;27.58;17.23;;;;;;;;;;4980093;28;20047;-71
2021/06/07 08:07:05;;;;;;;25.83;16.85;;;;;;;;;;4977046;28;20050;-71
2021/06/07 08:09:37;;;;;;;27.63;16.30;;;;;;;;;;4981436;28;20089;-71
2021/06/07 08:12:04;;;;;;;29.38;17.48;;;;;;;;;;4977585;28;20089;-71
2021/06/07 08:14:30;;;;;;;29.83;17.10;;;;;;;;;;4980988;28;20085;-71
2021/06/07 08:16:57;;;;;;;27.55;16.67;;;;;;;;;;4981603;28;20093;-69
2021/06/07 08:19:25;;;;;;;27.90;17.70;;;;;;;;;;4984440;28;20050;-68
2021/06/07 08:21:52;;;;;;;28.10;18.17;;;;;;;;;;4981389;28;20699;-69
2021/06/07 08:24:20;;;;;;;28.15;17.02;;;;;;;;;;4980366;28;20054;-69
2021/06/07 08:26:46;;;;;;;29.48;17.30;;;;;;;;;;4989518;28;20100;-71
2021/06/07 08:29:13;;;;;;;29.25;16.75;;;;;;;;;;4995098;28;20054;-71
2021/06/07 08:31:40;;;;;;;26.13;16.40;;;;;;;;;;4995218;28;20086;-71
2021/06/07 08:34:06;;;;;;;29.15;17.30;;;;;;;;;;4994977;28;20532;-71
2021/06/07 08:36:33;;;;;;;25.70;15.68;;;;;;;;;;4995336;28;20090;-71
2021/06/07 08:39:04;;;;;;;28.80;17.20;;;;;;;;;;4995107;28;20081;-71
2021/06/07 08:41:32;;;;;;;29.58;17.05;;;;;;;;;;4995067;28;20093;-71
2021/06/07 08:44:18;;;;;;;29.05;16.58;;;;;;;;;;4994265;28;20078;-71
2021/06/07 08:46:45;;;;;;;25.27;17.33;;;;;;;;;;4994841;28;20141;-71
2021/06/07 08:49:12;;;;;;;25.05;16.50;;;;;;;;;;4994855;28;20520;-71
2021/06/07 08:51:39;;;;;;;24.80;17.02;;;;;;;;;;4994476;28;20111;-71
2021/06/07 08:54:07;;;;;;;24.73;17.08;;;;;;;;;;4994946;28;20082;-71
2021/06/07 08:56:33;;;;;;;30.13;17.00;;;;;;;;;;4993250;28;20054;-71
2021/06/07 08:59:00;;;;;;;28.85;16.90;;;;;;;;;;4994758;28;20468;-71
2021/06/07 09:01:36;;;;;;;29.00;15.48;;;;;;;;;;4994464;28;20043;-71
2021/06/07 09:04:15;;;;;;;21.27;14.63;;;;;;;;;;4994533;28;20073;-71
2021/06/07 09:06:44;;;;;;;23.65;15.52;;;;;;;;;;4994667;28;20050;-71
2021/06/07 09:09:12;;;;;;;25.25;16.42;;;;;;;;;;4994387;28;20061;-71
2021/06/07 09:11:44;;;;;;;24.48;16.02;;;;;;;;;;4993956;28;20142;-71
2021/06/07 09:14:18;;;;;;;23.98;16.48;;;;;;;;;;4993951;28;20050;-71
2021/06/07 09:16:45;;;;;;;25.92;15.50;;;;;;;;;;4994491;28;20046;-71
2021/06/07 09:19:20;;;;;;;22.67;15.95;;;;;;;;;;4994736;28;20480;-71
2021/06/07 09:21:47;;;;;;;26.60;17.10;;;;;;;;;;4994096;28;20390;-71
2021/06/07 09:24:14;;;;;;;24.88;15.80;;;;;;;;;;4988952;28;20133;-71
2021/06/07 09:26:46;;;;;;;24.42;16.88;;;;;;;;;;4979004;28;20112;-82
2021/06/07 09:29:18;;;;;;;25.33;16.67;;;;;;;;;;4993678;28;20085;-70
2021/06/07 09:31:49;;;;;;;;;;;;;;;;;;4993971;28;20049;-70
2021/06/07 09:34:30;;;;;;;23.38;16.42;;;;;;;;;;4991229;28;19922;-70
2021/06/07 09:37:08;;;;;;;23.02;15.75;;;;;;;;;;4990952;28;20081;-70
2021/06/07 09:39:35;;;;;;;24.38;17.00;;;;;;;;;;4972889;28;20051;-67
2021/06/07 09:42:08;;;;;;;24.88;17.08;;;;;;;;;;4977013;28;20137;-72
2021/06/07 09:44:41;;;;;;;23.52;17.33;;;;;;;;;;4980636;28;20359;-74
2021/06/07 09:47:14;;;;;;;;;;;;;;;;;;4971535;28;20088;-72
2021/06/07 09:50:07;;;;;;;23.73;16.70;;;;;;;;;;4981946;28;19925;-74
2021/06/07 09:52:55;;;;;;;26.83;18.08;;;;;;;;;;4983959;28;20093;-69
2021/06/07 09:55:24;;;;;;;24.42;17.23;;;;;;;;;;4981506;28;20366;-74
2021/06/07 09:57:55;;;;;;;25.90;18.45;;;;;;;;;;4981763;28;20096;-73
2021/06/07 10:00:41;;;;;;;23.45;17.70;;;;;;;;;;4981384;28;20055;-77
2021/06/07 10:03:39;;;;;;;26.10;18.60;;;;;;;;;;4979856;28;20063;-72
2021/06/07 10:06:24;;;;;;;28.60;19.38;;;;;;;;;;4994305;28;20141;-71
2021/06/07 10:09:01;;;;;;;29.33;18.08;;;;;;;;;;4977580;28;20053;-73
2021/06/07 10:11:35;;;;;;;31.55;16.88;;;;;;;;;;4980220;28;20524;-77
2021/06/07 10:14:08;;;;;;;24.70;17.25;;;;;;;;;;4984860;28;20093;-77
2021/06/07 10:16:47;;;;;;;25.88;19.40;;;;;;;;;;4981300;28;20051;-71
2021/06/07 10:19:30;;;;;;;27.45;18.88;;;;;;;;;;4981053;28;20097;-69
2021/06/07 10:21:57;;;;;;;27.25;19.15;;;;;;;;;;4982777;28;20046;-69
2021/06/07 10:24:23;;;;;;;24.90;17.80;;;;;;;;;;4983307;28;20080;-72
2021/06/07 10:26:50;;;;;;;26.35;18.73;;;;;;;;;;4981861;28;20057;-70
2021/06/07 10:29:16;;;;;;;26.58;18.30;;;;;;;;;;4983927;28;20100;-71
2021/06/07 10:31:43;;;;;;;27.48;18.02;;;;;;;;;;4981460;28;20485;-67
2021/06/07 10:34:11;;;;;;;25.73;17.70;;;;;;;;;;4981321;28;20752;-71
2021/06/07 10:36:49;;;;;;;36.25;23.80;;;;;;;;;;4982405;28;20077;-72
2021/06/07 10:39:20;;;;;;;33.80;21.67;;;;;;;;;;4980508;28;20058;-72
2021/06/07 10:42:09;;;;;;;30.42;18.50;;;;;;;;;;4981589;28;20085;-72
2021/06/07 10:44:42;;;;;;;24.20;18.02;;;;;;;;;;4976051;28;20093;-72
2021/06/07 10:47:11;;;;;;;27.08;18.25;;;;;;;;;;4983047;28;20050;-72
2021/06/07 10:49:40;;;;;;;23.40;15.57;;;;;;;;;;4981877;28;20116;-71
2021/06/07 10:52:08;;;;;;;29.13;18.52;;;;;;;;;;4980016;28;20054;-72
2021/06/07 10:54:38;;;;;;;23.80;16.13;;;;;;;;;;4979251;28;20138;-71
2021/06/07 10:57:31;;;;;;;22.25;16.42;;;;;;;;;;4978437;28;20090;-71
2021/06/07 11:00:01;;;;;;;26.38;17.23;;;;;;;;;;4972761;28;20155;-71
2021/06/07 11:02:33;;;;;;;23.92;17.02;;;;;;;;;;4982933;28;20054;-72
2021/06/07 11:05:07;;;;;;;23.48;16.65;;;;;;;;;;4984579;28;20057;-71
2021/06/07 11:07:35;;;;;;;25.15;18.95;;;;;;;;;;4978518;28;20093;-73
2021/06/07 11:10:44;;;;;;;25.80;17.42;;;;;;;;;;4979748;28;20461;-73
2021/06/07 11:13:11;;;;;;;26.83;18.58;;;;;;;;;;4935496;28;20055;-73
2021/06/07 11:15:45;;;;;;;27.60;18.27;;;;;;;;;;4974252;28;20078;-73
2021/06/07 11:18:32;;;;;;;24.15;16.67;;;;;;;;;;4985940;28;20047;-73
2021/06/07 11:21:22;;;;;;;24.17;17.90;;;;;;;;;;4992428;28;20137;-73
2021/06/07 11:23:49;;;;;;;26.05;17.67;;;;;;;;;;4980615;28;20541;-73
2021/06/07 11:26:21;;;;;;;26.17;19.33;;;;;;;;;;4982670;28;20117;-73
2021/06/07 11:29:07;;;;;;;26.75;18.42;;;;;;;;;;4986633;28;20557;-73
2021/06/07 11:31:33;;;;;;;23.15;17.88;;;;;;;;;;4980992;28;20054;-73
2021/06/07 11:34:06;;;;;;;23.35;18.27;;;;;;;;;;4984852;28;20505;-73
2021/06/07 11:36:41;;;;;;;22.45;17.05;;;;;;;;;;5057767;22;20101;-70
2021/06/07 11:39:29;;;;;;;24.20;16.98;;;;;;;;;;5012411;28;20060;-73
2021/06/07 11:41:55;;;;;;;25.85;17.73;;;;;;;;;;5044845;28;20041;-72
2021/06/07 11:47:14;;;;;;;26.90;18.10;;;;;;;;;;5011146;28;20077;-75
2021/06/07 11:49:55;;;;;;;28.85;19.02;;;;;;;;;;5015258;28;20082;-73
2021/06/07 11:52:49;;;;;;;29.20;20.40;;;;;;;;;;5010364;28;20096;-73
2021/06/07 11:55:27;;;;;;;28.08;21.50;;;;;;;;;;5000519;28;20314;-72
2021/06/07 11:58:23;;;;;;;27.63;20.63;;;;;;;;;;5025132;28;20056;-73
2021/06/07 12:00:52;;;;;;;28.92;20.38;;;;;;;;;;5012478;28;20049;-76
2021/06/07 12:03:30;;;;;;;30.52;21.08;;;;;;;;;;5021890;28;20054;-75
2021/06/07 12:06:07;;;;;;;34.63;22.77;;;;;;;;;;5019932;28;20120;-73
2021/06/07 12:09:34;;;;;;;30.60;21.30;;;;;;;;;;5005796;28;20492;-73
2021/06/07 12:12:09;;;;;;;31.40;22.63;;;;;;;;;;5010057;28;20100;-71
2021/06/07 12:14:39;;;;;;;33.67;21.45;;;;;;;;;;5013020;28;20042;-71
2021/06/07 12:17:16;;;;;;;28.60;22.48;;;;;;;;;;5010554;28;20083;-70
2021/06/07 12:19:44;;;;;;;31.85;22.25;;;;;;;;;;5013427;28;20084;-70
2021/06/07 12:22:37;;;;;;;33.15;22.80;;;;;;;;;;5012240;28;20409;-70
2021/06/07 12:30:45;;;;;;;33.20;23.92;;;;;;;;;;5012591;28;20104;-71
2021/06/07 12:33:12;;;;;;;30.33;23.02;;;;;;;;;;5013670;28;20484;-70
2021/06/07 12:35:40;;;;;;;37.25;24.80;;;;;;;;;;5013034;28;20128;-70
2021/06/07 12:38:08;;;;;;;34.78;24.95;;;;;;;;;;5013367;28;20078;-70
2021/06/07 12:40:43;;;;;;;37.80;24.13;;;;;;;;;;5027846;28;20508;-70
2021/06/07 12:43:10;;;;;;;30.48;23.48;;;;;;;;;;5020885;28;20069;-71
2021/06/07 12:45:42;;;;;;;34.40;24.55;;;;;;;;;;5021503;28;20050;-71
2021/06/07 12:48:35;;;;;;;33.40;23.67;;;;;;;;;;5021677;28;20635;-70
2021/06/07 12:51:18;;;;;;;32.33;22.15;;;;;;;;;;5020845;28;20620;-71
2021/06/07 12:53:45;;;;;;;30.85;22.38;;;;;;;;;;5022361;28;20424;-70
2021/06/07 12:56:18;;;;;;;27.50;20.65;;;;;;;;;;5026410;28;20053;-70
2021/06/07 12:58:52;;;;;;;26.30;20.75;;;;;;;;;;5022713;28;20057;-71
2021/06/07 13:01:20;;;;;;;27.83;19.30;;;;;;;;;;5027009;28;20046;-70
2021/06/07 13:03:57;;;;;;;24.15;19.40;;;;;;;;;;5026829;28;20049;-70
2021/06/07 13:06:24;;;;;;;26.55;19.58;;;;;;;;;;5045773;28;20073;-70
2021/06/07 13:08:58;;;;;;;25.55;19.15;;;;;;;;;;5032588;28;20040;-70
2021/06/07 13:11:37;;;;;;;24.30;20.08;;;;;;;;;;5035771;28;20026;-69
2021/06/07 13:14:17;;;;;;;24.88;20.40;;;;;;;;;;5035136;28;20046;-69
2021/06/07 13:16:43;;;;;;;29.20;22.35;;;;;;;;;;5037262;28;20041;-70
2021/06/07 13:19:11;;;;;;;29.17;21.85;;;;;;;;;;5037633;28;20046;-68
2021/06/07 13:21:46;;;;;;;37.20;24.45;;;;;;;;;;5037971;28;20164;-67
2021/06/07 13:24:34;;;;;;;32.08;22.40;;;;;;;;;;5037901;28;20030;-66
2021/06/07 13:27:29;;;;;;;32.15;21.92;;;;;;;;;;5038505;28;20034;-67
2021/06/07 13:30:09;;;;;;;28.08;22.25;;;;;;;;;;5028500;28;20046;-71
2021/06/07 13:32:38;;;;;;;28.13;21.35;;;;;;;;;;5037779;28;20057;-72
2021/06/07 13:35:06;;;;;;;22.63;18.67;;;;;;;;;;5021235;28;20060;-73
2021/06/07 13:37:33;;;;;;;24.70;20.05;;;;;;;;;;5037964;28;20038;-73
2021/06/07 13:40:17;;;;;;;28.70;20.83;;;;;;;;;;5037495;28;20034;-74
2021/06/07 13:42:57;;;;;;;23.42;19.17;;;;;;;;;;5044863;28;20034;-74
2021/06/07 13:45:39;;;;;;;22.52;18.23;;;;;;;;;;5036335;28;20037;-73
2021/06/07 13:48:11;;;;;;;23.58;18.33;;;;;;;;;;5049535;28;20026;-73
2021/06/07 13:50:55;;;;;;;25.67;19.13;;;;;;;;;;5030720;28;20050;-68
2021/06/07 13:53:47;;;;;;;26.35;18.95;;;;;;;;;;5037593;28;20038;-71
2021/06/07 13:56:27;;;;;;;26.73;21.45;;;;;;;;;;5017570;23;20055;-79
2021/06/07 13:58:54;;;;;;;27.02;19.83;;;;;;;;;;4983173;28;20058;-79
2021/06/07 14:01:23;;;;;;;25.25;18.85;;;;;;;;;;5003457;28;20091;-81
2021/06/07 14:03:58;;;;;;;23.98;19.42;;;;;;;;;;5004138;28;20054;-80
2021/06/07 14:06:24;;;;;;;26.30;19.38;;;;;;;;;;4990820;28;20125;-80
2021/06/07 14:08:56;;;;;;;25.80;19.77;;;;;;;;;;5008786;28;20054;-81
2021/06/07 14:11:25;;;;;;;22.40;18.55;;;;;;;;;;5015175;28;20055;-80
2021/06/07 14:13:54;;;;;;;23.48;17.48;;;;;;;;;;5008174;28;20049;-80
2021/06/07 14:16:22;;;;;;;23.63;17.70;;;;;;;;;;5025259;28;20065;-80
2021/06/07 14:18:49;;;;;;;22.98;18.55;;;;;;;;;;5014831;28;20059;-80
2021/06/07 14:21:23;;;;;;;24.73;19.08;;;;;;;;;;4996435;28;20096;-79
2021/06/07 14:26:38;;;;;;;26.15;19.33;;;;;;;;;;5007844;28;20149;-80
2021/06/07 14:29:05;;;;;;;27.13;19.73;;;;;;;;;;4992996;28;20085;-80
2021/06/07 14:31:33;;;;;;;28.27;20.90;;;;;;;;;;5012486;28;20116;-79
2021/06/07 14:34:00;;;;;;;30.55;21.65;;;;;;;;;;4989389;28;20064;-79
2021/06/07 14:36:27;;;;;;;26.77;20.80;;;;;;;;;;4978405;28;20053;-80
2021/06/07 14:38:54;;;;;;;27.30;20.58;;;;;;;;;;4992984;28;20050;-80
2021/06/07 14:41:21;;;;;;;27.98;19.70;;;;;;;;;;5011627;28;20125;-80
2021/06/07 14:43:52;;;;;;;23.25;18.48;;;;;;;;;;5008985;28;20077;-79
2021/06/07 14:46:19;;;;;;;29.23;18.75;;;;;;;;;;5000886;28;20058;-80
2021/06/07 14:48:46;;;;;;;24.40;18.40;;;;;;;;;;4986080;28;20054;-79